sensor_id;sensor_type;location;lat;lon;timestamp;temperature;humidity
53294;DHT22;39181;53.440;5.644;2023-10-08T00:01:18;13.80;99.90
53294;DHT22;39181;53.440;5.644;2023-10-08T00:03:46;13.80;99.90
53294;DHT22;39181;53.440;5.644;2023-10-08T00:06:18;13.70;99.90
53294;DHT22;39181;53.440;5.644;2023-10-08T00:08:47;13.80;99.90
53294;DHT22;39181;53.440;5.644;2023-10-08T00:11:13;13.80;99.90
53294;DHT22;39181;53.440;5.644;2023-10-08T00:13:41;13.70;99.90
53294;DHT22;39181;53.440;5.644;2023-10-08T00:16:12;13.70;99.90
53294;DHT22;39181;53.440;5.644;2023-10-08T00:18:47;13.70;99.90
53294;DHT22;39181;53.440;5.644;2023-10-08T00:21:17;13.80;99.90
53294;DHT22;39181;53.440;5.644;2023-10-08T00:23:44;13.70;99.90
53294;DHT22;39181;53.440;5.644;2023-10-08T00:26:23;13.80;99.90
53294;DHT22;39181;53.440;5.644;2023-10-08T00:28:54;13.80;99.90
53294;DHT22;39181;53.440;5.644;2023-10-08T00:31:21;13.80;99.90
53294;DHT22;39181;53.440;5.644;2023-10-08T00:33:49;13.70;99.90
53294;DHT22;39181;53.440;5.644;2023-10-08T00:36:15;13.60;99.90
53294;DHT22;39181;53.440;5.644;2023-10-08T00:38:45;13.70;99.90
53294;DHT22;39181;53.440;5.644;2023-10-08T00:41:14;13.70;99.90
53294;DHT22;39181;53.440;5.644;2023-10-08T00:43:47;13.70;99.90
53294;DHT22;39181;53.440;5.644;2023-10-08T00:46:13;13.70;99.90
53294;DHT22;39181;53.440;5.644;2023-10-08T00:48:47;13.80;99.90
53294;DHT22;39181;53.440;5.644;2023-10-08T00:51:14;13.70;99.90
53294;DHT22;39181;53.440;5.644;2023-10-08T00:54:01;13.80;99.90
53294;DHT22;39181;53.440;5.644;2023-10-08T00:56:33;13.70;99.90
53294;DHT22;39181;53.440;5.644;2023-10-08T00:59:17;13.70;99.90
53294;DHT22;39181;53.440;5.644;2023-10-08T01:01:47;13.70;99.90
53294;DHT22;39181;53.440;5.644;2023-10-08T01:04:33;13.70;99.90
53294;DHT22;39181;53.440;5.644;2023-10-08T01:07:01;13.70;99.90
53294;DHT22;39181;53.440;5.644;2023-10-08T01:09:35;13.70;99.90
53294;DHT22;39181;53.440;5.644;2023-10-08T01:12:22;13.80;99.90
53294;DHT22;39181;53.440;5.644;2023-10-08T01:14:48;13.80;99.90
53294;DHT22;39181;53.440;5.644;2023-10-08T01:17:19;13.80;99.90
53294;DHT22;39181;53.440;5.644;2023-10-08T01:19:48;13.80;99.90
53294;DHT22;39181;53.440;5.644;2023-10-08T01:22:22;13.80;99.90
53294;DHT22;39181;53.440;5.644;2023-10-08T01:24:48;13.80;99.90
53294;DHT22;39181;53.440;5.644;2023-10-08T01:27:15;13.80;99.90
53294;DHT22;39181;53.440;5.644;2023-10-08T01:29:47;13.70;99.90
53294;DHT22;39181;53.440;5.644;2023-10-08T01:32:13;13.60;99.90
53294;DHT22;39181;53.440;5.644;2023-10-08T01:34:42;13.70;99.90
53294;DHT22;39181;53.440;5.644;2023-10-08T01:37:12;13.70;99.90
53294;DHT22;39181;53.440;5.644;2023-10-08T01:39:38;13.70;99.90
53294;DHT22;39181;53.440;5.644;2023-10-08T01:42:08;13.70;99.90
53294;DHT22;39181;53.440;5.644;2023-10-08T01:44:42;13.70;99.90
53294;DHT22;39181;53.440;5.644;2023-10-08T01:47:12;13.70;99.90
53294;DHT22;39181;53.440;5.644;2023-10-08T01:49:37;13.70;99.90
53294;DHT22;39181;53.440;5.644;2023-10-08T01:52:05;13.70;99.90
53294;DHT22;39181;53.440;5.644;2023-10-08T01:54:33;13.70;99.90
53294;DHT22;39181;53.440;5.644;2023-10-08T01:57:01;13.70;99.90
53294;DHT22;39181;53.440;5.644;2023-10-08T01:59:31;13.80;99.90
53294;DHT22;39181;53.440;5.644;2023-10-08T02:01:57;13.70;99.90
53294;DHT22;39181;53.440;5.644;2023-10-08T02:04:23;13.70;99.90
53294;DHT22;39181;53.440;5.644;2023-10-08T02:06:48;13.70;99.90
53294;DHT22;39181;53.440;5.644;2023-10-08T02:09:14;13.70;99.90
53294;DHT22;39181;53.440;5.644;2023-10-08T02:11:46;13.70;99.90
53294;DHT22;39181;53.440;5.644;2023-10-08T02:14:15;13.70;99.90
53294;DHT22;39181;53.440;5.644;2023-10-08T02:16:43;13.70;99.90
53294;DHT22;39181;53.440;5.644;2023-10-08T02:19:08;13.70;99.90
53294;DHT22;39181;53.440;5.644;2023-10-08T02:21:36;14.20;99.90
53294;DHT22;39181;53.440;5.644;2023-10-08T02:24:05;13.70;99.90
53294;DHT22;39181;53.440;5.644;2023-10-08T02:26:32;13.70;99.90
53294;DHT22;39181;53.440;5.644;2023-10-08T02:29:03;13.70;99.90
53294;DHT22;39181;53.440;5.644;2023-10-08T02:31:33;13.70;99.90
53294;DHT22;39181;53.440;5.644;2023-10-08T02:33:59;13.80;99.90
53294;DHT22;39181;53.440;5.644;2023-10-08T02:36:25;13.80;99.90
53294;DHT22;39181;53.440;5.644;2023-10-08T02:38:50;13.80;99.90
53294;DHT22;39181;53.440;5.644;2023-10-08T02:41:16;13.80;99.90
53294;DHT22;39181;53.440;5.644;2023-10-08T02:43:43;13.80;99.90
53294;DHT22;39181;53.440;5.644;2023-10-08T02:46:10;13.80;99.90
53294;DHT22;39181;53.440;5.644;2023-10-08T02:48:40;13.80;99.90
53294;DHT22;39181;53.440;5.644;2023-10-08T02:51:06;13.80;99.90
53294;DHT22;39181;53.440;5.644;2023-10-08T02:53:40;13.80;99.90
53294;DHT22;39181;53.440;5.644;2023-10-08T02:56:09;13.80;99.90
53294;DHT22;39181;53.440;5.644;2023-10-08T02:58:41;13.80;99.90
53294;DHT22;39181;53.440;5.644;2023-10-08T03:01:09;13.70;99.90
53294;DHT22;39181;53.440;5.644;2023-10-08T03:03:40;13.70;99.90
53294;DHT22;39181;53.440;5.644;2023-10-08T03:06:07;13.80;99.90
53294;DHT22;39181;53.440;5.644;2023-10-08T03:08:40;13.70;99.90
53294;DHT22;39181;53.440;5.644;2023-10-08T03:11:09;13.70;99.90
53294;DHT22;39181;53.440;5.644;2023-10-08T03:13:46;13.70;99.90
53294;DHT22;39181;53.440;5.644;2023-10-08T03:16:17;13.70;99.90
53294;DHT22;39181;53.440;5.644;2023-10-08T03:18:47;13.70;99.90
53294;DHT22;39181;53.440;5.644;2023-10-08T03:21:16;13.80;99.90
53294;DHT22;39181;53.440;5.644;2023-10-08T03:24:08;13.70;99.90
53294;DHT22;39181;53.440;5.644;2023-10-08T03:26:58;13.70;99.90
53294;DHT22;39181;53.440;5.644;2023-10-08T03:29:40;13.80;99.90
53294;DHT22;39181;53.440;5.644;2023-10-08T03:32:14;13.70;99.90
53294;DHT22;39181;53.440;5.644;2023-10-08T03:34:49;13.70;99.90
53294;DHT22;39181;53.440;5.644;2023-10-08T03:37:18;13.80;99.90
53294;DHT22;39181;53.440;5.644;2023-10-08T03:39:50;13.80;99.90
53294;DHT22;39181;53.440;5.644;2023-10-08T03:42:23;13.80;99.90
53294;DHT22;39181;53.440;5.644;2023-10-08T03:44:51;13.80;99.90
53294;DHT22;39181;53.440;5.644;2023-10-08T03:47:23;13.70;99.90
53294;DHT22;39181;53.440;5.644;2023-10-08T03:49:52;13.80;99.90
53294;DHT22;39181;53.440;5.644;2023-10-08T03:52:19;13.70;99.90
53294;DHT22;39181;53.440;5.644;2023-10-08T03:54:49;13.70;99.90
53294;DHT22;39181;53.440;5.644;2023-10-08T03:57:25;13.70;99.90
53294;DHT22;39181;53.440;5.644;2023-10-08T03:59:50;13.70;99.90
53294;DHT22;39181;53.440;5.644;2023-10-08T04:02:20;13.80;99.90
53294;DHT22;39181;53.440;5.644;2023-10-08T04:05:09;13.80;99.90
53294;DHT22;39181;53.440;5.644;2023-10-08T04:07:45;13.80;99.90
53294;DHT22;39181;53.440;5.644;2023-10-08T04:10:37;13.80;99.90
53294;DHT22;39181;53.440;5.644;2023-10-08T04:13:02;13.80;99.90
53294;DHT22;39181;53.440;5.644;2023-10-08T04:15:29;13.80;99.90
53294;DHT22;39181;53.440;5.644;2023-10-08T04:17:55;13.80;99.90
53294;DHT22;39181;53.440;5.644;2023-10-08T04:20:22;13.90;99.90
53294;DHT22;39181;53.440;5.644;2023-10-08T04:23:10;13.80;99.90
53294;DHT22;39181;53.440;5.644;2023-10-08T04:25:46;13.90;99.90
53294;DHT22;39181;53.440;5.644;2023-10-08T04:28:16;13.80;99.90
53294;DHT22;39181;53.440;5.644;2023-10-08T04:30:46;13.80;99.90
53294;DHT22;39181;53.440;5.644;2023-10-08T04:33:13;13.70;99.90
53294;DHT22;39181;53.440;5.644;2023-10-08T04:35:42;13.80;99.90
53294;DHT22;39181;53.440;5.644;2023-10-08T04:38:22;13.70;99.90
53294;DHT22;39181;53.440;5.644;2023-10-08T04:40:51;13.70;99.90
53294;DHT22;39181;53.440;5.644;2023-10-08T04:43:18;13.60;99.90
53294;DHT22;39181;53.440;5.644;2023-10-08T04:45:54;13.60;99.90
53294;DHT22;39181;53.440;5.644;2023-10-08T04:48:22;13.60;99.90
53294;DHT22;39181;53.440;5.644;2023-10-08T04:50:49;13.60;99.90
53294;DHT22;39181;53.440;5.644;2023-10-08T04:53:28;13.60;99.90
53294;DHT22;39181;53.440;5.644;2023-10-08T04:56:00;13.50;99.90
53294;DHT22;39181;53.440;5.644;2023-10-08T04:58:32;13.50;99.90
53294;DHT22;39181;53.440;5.644;2023-10-08T05:01:03;13.60;99.90
53294;DHT22;39181;53.440;5.644;2023-10-08T05:03:51;13.50;99.90
53294;DHT22;39181;53.440;5.644;2023-10-08T05:06:26;13.60;99.90
53294;DHT22;39181;53.440;5.644;2023-10-08T05:09:05;13.50;99.90
53294;DHT22;39181;53.440;5.644;2023-10-08T05:11:47;13.60;99.90
53294;DHT22;39181;53.440;5.644;2023-10-08T05:14:15;13.50;99.90
53294;DHT22;39181;53.440;5.644;2023-10-08T05:17:07;13.50;99.90
53294;DHT22;39181;53.440;5.644;2023-10-08T05:19:40;13.40;99.90
53294;DHT22;39181;53.440;5.644;2023-10-08T05:22:09;13.40;99.90
53294;DHT22;39181;53.440;5.644;2023-10-08T05:24:57;13.40;99.90
53294;DHT22;39181;53.440;5.644;2023-10-08T05:27:41;13.40;99.90
53294;DHT22;39181;53.440;5.644;2023-10-08T05:30:28;13.40;99.90
53294;DHT22;39181;53.440;5.644;2023-10-08T05:33:08;13.40;99.90
53294;DHT22;39181;53.440;5.644;2023-10-08T05:35:49;13.40;99.90
53294;DHT22;39181;53.440;5.644;2023-10-08T05:38:17;13.40;99.90
53294;DHT22;39181;53.440;5.644;2023-10-08T05:40:55;13.40;99.90
53294;DHT22;39181;53.440;5.644;2023-10-08T05:43:28;13.40;99.90
53294;DHT22;39181;53.440;5.644;2023-10-08T05:46:13;13.40;99.90
53294;DHT22;39181;53.440;5.644;2023-10-08T05:48:52;13.30;99.90
53294;DHT22;39181;53.440;5.644;2023-10-08T05:51:29;13.30;99.90
53294;DHT22;39181;53.440;5.644;2023-10-08T05:54:23;13.20;99.90
53294;DHT22;39181;53.440;5.644;2023-10-08T05:56:57;13.20;99.90
53294;DHT22;39181;53.440;5.644;2023-10-08T05:59:35;13.20;99.90
53294;DHT22;39181;53.440;5.644;2023-10-08T06:02:20;13.30;99.90
53294;DHT22;39181;53.440;5.644;2023-10-08T06:05:08;13.20;99.90
53294;DHT22;39181;53.440;5.644;2023-10-08T06:07:45;13.20;99.90
53294;DHT22;39181;53.440;5.644;2023-10-08T06:10:15;13.20;99.90
53294;DHT22;39181;53.440;5.644;2023-10-08T06:13:11;13.20;99.90
53294;DHT22;39181;53.440;5.644;2023-10-08T06:16:00;13.20;99.90
53294;DHT22;39181;53.440;5.644;2023-10-08T06:18:28;13.20;99.90
53294;DHT22;39181;53.440;5.644;2023-10-08T06:20:54;13.20;99.90
53294;DHT22;39181;53.440;5.644;2023-10-08T06:23:20;13.20;99.90
53294;DHT22;39181;53.440;5.644;2023-10-08T06:25:49;13.20;99.90
53294;DHT22;39181;53.440;5.644;2023-10-08T06:28:25;13.10;99.90
53294;DHT22;39181;53.440;5.644;2023-10-08T06:30:55;13.20;99.90
53294;DHT22;39181;53.440;5.644;2023-10-08T06:33:23;13.20;99.90
53294;DHT22;39181;53.440;5.644;2023-10-08T06:35:57;13.20;99.90
53294;DHT22;39181;53.440;5.644;2023-10-08T06:38:40;13.20;99.90
53294;DHT22;39181;53.440;5.644;2023-10-08T06:41:09;13.20;99.90
53294;DHT22;39181;53.440;5.644;2023-10-08T06:43:48;13.20;99.90
53294;DHT22;39181;53.440;5.644;2023-10-08T06:46:28;13.20;99.90
53294;DHT22;39181;53.440;5.644;2023-10-08T06:48:58;13.30;99.90
53294;DHT22;39181;53.440;5.644;2023-10-08T06:51:24;13.30;99.90
53294;DHT22;39181;53.440;5.644;2023-10-08T06:53:51;13.40;99.90
53294;DHT22;39181;53.440;5.644;2023-10-08T06:56:17;13.30;99.90
53294;DHT22;39181;53.440;5.644;2023-10-08T06:58:45;13.40;99.90
53294;DHT22;39181;53.440;5.644;2023-10-08T07:01:14;13.40;99.90
53294;DHT22;39181;53.440;5.644;2023-10-08T07:03:49;13.50;99.90
53294;DHT22;39181;53.440;5.644;2023-10-08T07:06:16;13.40;99.90
53294;DHT22;39181;53.440;5.644;2023-10-08T07:08:43;13.40;99.90
53294;DHT22;39181;53.440;5.644;2023-10-08T07:11:13;13.50;99.90
53294;DHT22;39181;53.440;5.644;2023-10-08T07:13:39;13.50;99.90
53294;DHT22;39181;53.440;5.644;2023-10-08T07:16:08;13.50;99.90
53294;DHT22;39181;53.440;5.644;2023-10-08T07:18:37;13.60;99.90
53294;DHT22;39181;53.440;5.644;2023-10-08T07:21:03;13.60;99.90
53294;DHT22;39181;53.440;5.644;2023-10-08T07:23:30;13.60;99.90
53294;DHT22;39181;53.440;5.644;2023-10-08T07:26:01;13.60;99.90
53294;DHT22;39181;53.440;5.644;2023-10-08T07:28:45;13.60;99.90
53294;DHT22;39181;53.440;5.644;2023-10-08T07:31:15;13.50;99.90
53294;DHT22;39181;53.440;5.644;2023-10-08T07:33:46;13.40;99.90
53294;DHT22;39181;53.440;5.644;2023-10-08T07:43:21;13.20;99.90
53294;DHT22;39181;53.440;5.644;2023-10-08T07:45:46;13.20;99.90
53294;DHT22;39181;53.440;5.644;2023-10-08T07:48:12;13.30;99.90
53294;DHT22;39181;53.440;5.644;2023-10-08T07:50:44;13.30;99.90
53294;DHT22;39181;53.440;5.644;2023-10-08T07:53:10;13.40;99.90
53294;DHT22;39181;53.440;5.644;2023-10-08T07:55:44;13.40;99.90
53294;DHT22;39181;53.440;5.644;2023-10-08T07:58:11;13.50;99.90
53294;DHT22;39181;53.440;5.644;2023-10-08T08:30:32;14.30;99.90
53294;DHT22;39181;53.440;5.644;2023-10-08T08:32:59;14.50;99.90
53294;DHT22;39181;53.440;5.644;2023-10-08T08:35:26;14.60;99.90
53294;DHT22;39181;53.440;5.644;2023-10-08T08:37:52;14.70;99.90
53294;DHT22;39181;53.440;5.644;2023-10-08T08:40:20;14.80;99.90
53294;DHT22;39181;53.440;5.644;2023-10-08T08:42:51;14.90;99.90
53294;DHT22;39181;53.440;5.644;2023-10-08T08:45:22;14.90;99.90
53294;DHT22;39181;53.440;5.644;2023-10-08T08:47:48;15.00;99.90
53294;DHT22;39181;53.440;5.644;2023-10-08T08:50:14;15.10;99.90
53294;DHT22;39181;53.440;5.644;2023-10-08T08:52:40;15.10;99.90
53294;DHT22;39181;53.440;5.644;2023-10-08T08:55:07;15.20;99.90
53294;DHT22;39181;53.440;5.644;2023-10-08T08:57:46;15.20;99.90
53294;DHT22;39181;53.440;5.644;2023-10-08T09:00:13;15.30;99.90
53294;DHT22;39181;53.440;5.644;2023-10-08T09:02:40;15.30;99.90
53294;DHT22;39181;53.440;5.644;2023-10-08T09:05:06;15.50;99.90
53294;DHT22;39181;53.440;5.644;2023-10-08T09:08:01;15.60;99.90
53294;DHT22;39181;53.440;5.644;2023-10-08T09:10:37;15.70;99.90
53294;DHT22;39181;53.440;5.644;2023-10-08T09:13:04;15.70;99.90
53294;DHT22;39181;53.440;5.644;2023-10-08T09:15:31;15.70;99.90
53294;DHT22;39181;53.440;5.644;2023-10-08T09:18:00;15.70;99.90
53294;DHT22;39181;53.440;5.644;2023-10-08T09:20:27;15.60;99.90
53294;DHT22;39181;53.440;5.644;2023-10-08T09:23:11;15.70;99.90
53294;DHT22;39181;53.440;5.644;2023-10-08T09:25:46;15.80;99.90
53294;DHT22;39181;53.440;5.644;2023-10-08T09:28:27;15.80;99.90
53294;DHT22;39181;53.440;5.644;2023-10-08T09:30:54;15.70;99.90
53294;DHT22;39181;53.440;5.644;2023-10-08T09:33:24;15.90;99.90
53294;DHT22;39181;53.440;5.644;2023-10-08T09:35:51;15.90;99.90
53294;DHT22;39181;53.440;5.644;2023-10-08T09:38:21;15.90;99.90
53294;DHT22;39181;53.440;5.644;2023-10-08T09:40:49;16.10;99.90
53294;DHT22;39181;53.440;5.644;2023-10-08T09:43:16;16.20;99.90
53294;DHT22;39181;53.440;5.644;2023-10-08T09:45:50;16.30;99.90
53294;DHT22;39181;53.440;5.644;2023-10-08T09:48:18;16.30;99.90
53294;DHT22;39181;53.440;5.644;2023-10-08T09:50:47;16.30;99.90
53294;DHT22;39181;53.440;5.644;2023-10-08T09:53:13;16.40;99.90
53294;DHT22;39181;53.440;5.644;2023-10-08T09:55:53;16.30;99.90
53294;DHT22;39181;53.440;5.644;2023-10-08T09:58:21;16.30;99.90
53294;DHT22;39181;53.440;5.644;2023-10-08T10:00:48;16.30;99.90
53294;DHT22;39181;53.440;5.644;2023-10-08T10:03:15;16.30;99.90
53294;DHT22;39181;53.440;5.644;2023-10-08T10:05:44;16.20;99.90
53294;DHT22;39181;53.440;5.644;2023-10-08T10:08:10;16.40;99.90
53294;DHT22;39181;53.440;5.644;2023-10-08T10:10:37;16.30;99.90
53294;DHT22;39181;53.440;5.644;2023-10-08T10:13:04;16.30;99.90
53294;DHT22;39181;53.440;5.644;2023-10-08T10:15:34;16.30;99.90
53294;DHT22;39181;53.440;5.644;2023-10-08T10:18:26;16.40;99.90
53294;DHT22;39181;53.440;5.644;2023-10-08T10:20:58;16.30;99.90
53294;DHT22;39181;53.440;5.644;2023-10-08T10:23:38;16.30;99.90
53294;DHT22;39181;53.440;5.644;2023-10-08T10:29:23;16.40;99.90
53294;DHT22;39181;53.440;5.644;2023-10-08T10:31:53;16.60;99.90
53294;DHT22;39181;53.440;5.644;2023-10-08T10:34:27;16.90;99.90
53294;DHT22;39181;53.440;5.644;2023-10-08T10:36:54;17.00;99.90
53294;DHT22;39181;53.440;5.644;2023-10-08T10:39:35;17.10;99.90
53294;DHT22;39181;53.440;5.644;2023-10-08T10:42:05;17.20;99.90
53294;DHT22;39181;53.440;5.644;2023-10-08T10:44:46;17.50;99.90
53294;DHT22;39181;53.440;5.644;2023-10-08T10:47:16;17.70;99.90
53294;DHT22;39181;53.440;5.644;2023-10-08T10:49:47;17.70;99.90
53294;DHT22;39181;53.440;5.644;2023-10-08T10:52:15;17.70;99.90
53294;DHT22;39181;53.440;5.644;2023-10-08T10:55:03;17.70;99.90
53294;DHT22;39181;53.440;5.644;2023-10-08T10:57:54;17.80;99.90
53294;DHT22;39181;53.440;5.644;2023-10-08T11:00:37;17.80;99.90
53294;DHT22;39181;53.440;5.644;2023-10-08T11:03:03;17.80;99.90
53294;DHT22;39181;53.440;5.644;2023-10-08T11:05:37;17.80;99.90
53294;DHT22;39181;53.440;5.644;2023-10-08T11:08:06;17.70;99.90
53294;DHT22;39181;53.440;5.644;2023-10-08T11:10:39;17.70;99.90
53294;DHT22;39181;53.440;5.644;2023-10-08T11:13:08;17.60;99.90
53294;DHT22;39181;53.440;5.644;2023-10-08T11:15:44;17.60;99.90
53294;DHT22;39181;53.440;5.644;2023-10-08T11:18:16;17.80;99.90
53294;DHT22;39181;53.440;5.644;2023-10-08T11:20:42;17.70;99.90
53294;DHT22;39181;53.440;5.644;2023-10-08T11:26:00;17.70;99.90
53294;DHT22;39181;53.440;5.644;2023-10-08T11:31:05;18.20;99.90
53294;DHT22;39181;53.440;5.644;2023-10-08T11:33:38;18.30;99.90
53294;DHT22;39181;53.440;5.644;2023-10-08T11:36:06;18.30;99.90
53294;DHT22;39181;53.440;5.644;2023-10-08T11:38:42;18.30;99.90
53294;DHT22;39181;53.440;5.644;2023-10-08T11:41:15;18.30;99.90
53294;DHT22;39181;53.440;5.644;2023-10-08T11:43:51;18.30;99.90
53294;DHT22;39181;53.440;5.644;2023-10-08T11:46:29;18.30;99.90
53294;DHT22;39181;53.440;5.644;2023-10-08T11:49:07;18.30;99.90
53294;DHT22;39181;53.440;5.644;2023-10-08T11:51:34;18.40;99.90
53294;DHT22;39181;53.440;5.644;2023-10-08T11:54:01;18.50;99.90
53294;DHT22;39181;53.440;5.644;2023-10-08T11:56:28;18.70;99.90
53294;DHT22;39181;53.440;5.644;2023-10-08T11:58:54;18.80;99.90
53294;DHT22;39181;53.440;5.644;2023-10-08T12:01:23;19.00;99.90
53294;DHT22;39181;53.440;5.644;2023-10-08T12:03:49;19.10;99.90
53294;DHT22;39181;53.440;5.644;2023-10-08T12:06:16;19.20;99.90
53294;DHT22;39181;53.440;5.644;2023-10-08T12:08:45;19.20;99.90
53294;DHT22;39181;53.440;5.644;2023-10-08T12:11:15;19.40;99.90
53294;DHT22;39181;53.440;5.644;2023-10-08T12:13:41;19.50;99.90
53294;DHT22;39181;53.440;5.644;2023-10-08T12:16:14;19.50;99.90
53294;DHT22;39181;53.440;5.644;2023-10-08T12:18:49;19.40;99.90
53294;DHT22;39181;53.440;5.644;2023-10-08T12:21:20;19.30;99.90
53294;DHT22;39181;53.440;5.644;2023-10-08T12:23:47;19.10;99.90
53294;DHT22;39181;53.440;5.644;2023-10-08T12:26:13;19.10;99.90
53294;DHT22;39181;53.440;5.644;2023-10-08T12:28:47;19.00;99.90
53294;DHT22;39181;53.440;5.644;2023-10-08T12:31:19;18.90;99.90
53294;DHT22;39181;53.440;5.644;2023-10-08T12:33:52;18.90;99.90
53294;DHT22;39181;53.440;5.644;2023-10-08T12:36:26;18.90;99.90
53294;DHT22;39181;53.440;5.644;2023-10-08T12:38:58;18.90;99.90
53294;DHT22;39181;53.440;5.644;2023-10-08T12:41:26;19.00;99.90
53294;DHT22;39181;53.440;5.644;2023-10-08T12:43:53;19.00;99.90
53294;DHT22;39181;53.440;5.644;2023-10-08T12:46:20;19.00;99.90
53294;DHT22;39181;53.440;5.644;2023-10-08T12:48:52;19.00;99.90
53294;DHT22;39181;53.440;5.644;2023-10-08T12:51:19;18.90;99.90
53294;DHT22;39181;53.440;5.644;2023-10-08T12:53:49;19.10;99.90
53294;DHT22;39181;53.440;5.644;2023-10-08T12:56:29;19.20;99.90
53294;DHT22;39181;53.440;5.644;2023-10-08T12:59:01;19.10;99.90
53294;DHT22;39181;53.440;5.644;2023-10-08T13:01:31;19.10;99.90
53294;DHT22;39181;53.440;5.644;2023-10-08T13:03:56;19.10;99.90
53294;DHT22;39181;53.440;5.644;2023-10-08T13:06:27;19.00;99.90
53294;DHT22;39181;53.440;5.644;2023-10-08T13:08:59;19.10;99.90
53294;DHT22;39181;53.440;5.644;2023-10-08T13:11:28;19.20;99.90
53294;DHT22;39181;53.440;5.644;2023-10-08T13:13:59;19.20;99.90
53294;DHT22;39181;53.440;5.644;2023-10-08T13:16:27;19.20;99.90
53294;DHT22;39181;53.440;5.644;2023-10-08T13:18:57;19.10;99.90
53294;DHT22;39181;53.440;5.644;2023-10-08T13:21:24;18.90;99.90
53294;DHT22;39181;53.440;5.644;2023-10-08T13:23:54;18.80;99.90
53294;DHT22;39181;53.440;5.644;2023-10-08T13:26:25;18.50;99.90
53294;DHT22;39181;53.440;5.644;2023-10-08T13:28:59;18.30;99.90
53294;DHT22;39181;53.440;5.644;2023-10-08T13:31:25;18.00;99.90
53294;DHT22;39181;53.440;5.644;2023-10-08T13:33:51;17.90;99.90
53294;DHT22;39181;53.440;5.644;2023-10-08T13:36:18;18.00;99.90
53294;DHT22;39181;53.440;5.644;2023-10-08T13:38:44;18.00;99.90
53294;DHT22;39181;53.440;5.644;2023-10-08T13:41:11;17.90;99.90
53294;DHT22;39181;53.440;5.644;2023-10-08T13:43:44;17.90;99.90
53294;DHT22;39181;53.440;5.644;2023-10-08T13:46:14;17.80;99.90
53294;DHT22;39181;53.440;5.644;2023-10-08T13:48:42;17.70;99.90
53294;DHT22;39181;53.440;5.644;2023-10-08T13:51:12;17.70;99.90
53294;DHT22;39181;53.440;5.644;2023-10-08T13:53:49;17.50;99.90
53294;DHT22;39181;53.440;5.644;2023-10-08T13:56:22;17.40;99.90
53294;DHT22;39181;53.440;5.644;2023-10-08T13:58:52;17.30;99.90
53294;DHT22;39181;53.440;5.644;2023-10-08T14:01:21;17.20;99.90
53294;DHT22;39181;53.440;5.644;2023-10-08T14:03:50;17.20;99.90
53294;DHT22;39181;53.440;5.644;2023-10-08T14:06:22;17.10;99.90
53294;DHT22;39181;53.440;5.644;2023-10-08T14:08:47;17.00;99.90
53294;DHT22;39181;53.440;5.644;2023-10-08T14:11:21;17.10;99.90
53294;DHT22;39181;53.440;5.644;2023-10-08T14:13:52;17.00;99.90
53294;DHT22;39181;53.440;5.644;2023-10-08T14:16:21;17.00;99.90
53294;DHT22;39181;53.440;5.644;2023-10-08T14:18:56;17.00;99.90
53294;DHT22;39181;53.440;5.644;2023-10-08T14:21:25;17.00;99.90
53294;DHT22;39181;53.440;5.644;2023-10-08T14:23:56;17.10;99.90
53294;DHT22;39181;53.440;5.644;2023-10-08T14:26:28;17.00;99.90
53294;DHT22;39181;53.440;5.644;2023-10-08T14:29:00;16.90;99.90
53294;DHT22;39181;53.440;5.644;2023-10-08T14:31:33;16.80;99.90
53294;DHT22;39181;53.440;5.644;2023-10-08T14:34:02;16.80;99.90
53294;DHT22;39181;53.440;5.644;2023-10-08T14:36:32;16.90;99.90
53294;DHT22;39181;53.440;5.644;2023-10-08T14:39:17;16.80;99.90
53294;DHT22;39181;53.440;5.644;2023-10-08T14:42:01;16.70;99.90
53294;DHT22;39181;53.440;5.644;2023-10-08T14:44:46;16.70;99.90
53294;DHT22;39181;53.440;5.644;2023-10-08T14:47:12;16.80;99.90
53294;DHT22;39181;53.440;5.644;2023-10-08T14:49:38;16.70;99.90
53294;DHT22;39181;53.440;5.644;2023-10-08T14:52:04;16.60;99.90
53294;DHT22;39181;53.440;5.644;2023-10-08T14:54:31;16.60;99.90
53294;DHT22;39181;53.440;5.644;2023-10-08T14:56:57;16.60;99.90
53294;DHT22;39181;53.440;5.644;2023-10-08T14:59:23;16.60;99.90
53294;DHT22;39181;53.440;5.644;2023-10-08T15:01:49;16.60;99.90
53294;DHT22;39181;53.440;5.644;2023-10-08T15:04:15;16.60;99.90
53294;DHT22;39181;53.440;5.644;2023-10-08T15:06:43;16.50;99.90
53294;DHT22;39181;53.440;5.644;2023-10-08T15:09:09;16.40;99.90
53294;DHT22;39181;53.440;5.644;2023-10-08T15:11:35;16.30;99.90
53294;DHT22;39181;53.440;5.644;2023-10-08T15:14:04;16.30;99.90
53294;DHT22;39181;53.440;5.644;2023-10-08T15:16:36;16.20;99.90
53294;DHT22;39181;53.440;5.644;2023-10-08T15:19:02;16.20;99.90
53294;DHT22;39181;53.440;5.644;2023-10-08T15:21:30;16.20;99.90
53294;DHT22;39181;53.440;5.644;2023-10-08T15:24:01;16.10;99.90
53294;DHT22;39181;53.440;5.644;2023-10-08T15:26:32;16.10;99.90
53294;DHT22;39181;53.440;5.644;2023-10-08T15:28:57;16.10;99.90
53294;DHT22;39181;53.440;5.644;2023-10-08T15:31:23;16.10;99.90
53294;DHT22;39181;53.440;5.644;2023-10-08T15:33:50;16.00;99.90
53294;DHT22;39181;53.440;5.644;2023-10-08T15:36:15;16.00;99.90
53294;DHT22;39181;53.440;5.644;2023-10-08T15:38:41;16.00;99.90
53294;DHT22;39181;53.440;5.644;2023-10-08T15:41:07;16.10;99.90
53294;DHT22;39181;53.440;5.644;2023-10-08T15:43:32;16.00;99.90
53294;DHT22;39181;53.440;5.644;2023-10-08T15:45:59;16.00;99.90
53294;DHT22;39181;53.440;5.644;2023-10-08T15:48:27;16.00;99.90
53294;DHT22;39181;53.440;5.644;2023-10-08T15:50:54;16.00;99.90
53294;DHT22;39181;53.440;5.644;2023-10-08T15:53:19;16.00;99.90
53294;DHT22;39181;53.440;5.644;2023-10-08T15:55:45;15.90;99.90
53294;DHT22;39181;53.440;5.644;2023-10-08T15:58:12;15.90;99.90
53294;DHT22;39181;53.440;5.644;2023-10-08T16:00:38;15.80;99.90
53294;DHT22;39181;53.440;5.644;2023-10-08T16:03:04;15.80;99.90
53294;DHT22;39181;53.440;5.644;2023-10-08T16:05:31;15.70;99.90
53294;DHT22;39181;53.440;5.644;2023-10-08T16:07:57;15.70;99.90
53294;DHT22;39181;53.440;5.644;2023-10-08T16:10:27;15.60;99.90
53294;DHT22;39181;53.440;5.644;2023-10-08T16:12:53;15.60;99.90
53294;DHT22;39181;53.440;5.644;2023-10-08T16:15:20;15.60;99.90
53294;DHT22;39181;53.440;5.644;2023-10-08T16:17:47;15.50;99.90
53294;DHT22;39181;53.440;5.644;2023-10-08T16:20:13;15.50;99.90
53294;DHT22;39181;53.440;5.644;2023-10-08T16:22:40;15.40;99.90
53294;DHT22;39181;53.440;5.644;2023-10-08T16:25:06;15.40;99.90
53294;DHT22;39181;53.440;5.644;2023-10-08T16:27:31;15.30;99.90
53294;DHT22;39181;53.440;5.644;2023-10-08T16:30:00;15.30;99.90
53294;DHT22;39181;53.440;5.644;2023-10-08T16:32:25;15.20;99.90
53294;DHT22;39181;53.440;5.644;2023-10-08T16:34:51;15.20;99.90
53294;DHT22;39181;53.440;5.644;2023-10-08T16:37:18;15.10;99.90
53294;DHT22;39181;53.440;5.644;2023-10-08T16:39:47;15.10;99.90